createdAt,value
2017-11-06T00:02:57.956Z,99387.61
2017-11-06T00:09:01.422Z,99388.64
2017-11-06T00:15:05.207Z,99392.95
2017-11-06T00:21:08.994Z,99396.27
2017-11-06T00:27:12.460Z,99406.33
2017-11-06T00:33:15.897Z,99425.20
2017-11-06T00:39:19.349Z,99426.87
2017-11-06T00:45:22.817Z,99444.08
2017-11-06T00:51:26.268Z,99444.55
2017-11-06T00:57:30.494Z,99460.12
2017-11-06T01:03:33.974Z,99451.05
2017-11-06T01:09:37.710Z,99460.02
2017-11-06T01:15:41.179Z,99463.57
2017-11-06T01:21:44.641Z,99461.56
2017-11-06T01:27:48.445Z,99456.27
2017-11-06T01:33:52.562Z,99473.33
2017-11-06T01:39:56.031Z,99478.67
2017-11-06T01:45:59.828Z,99483.64
2017-11-06T01:52:03.298Z,99490.70
2017-11-06T01:58:07.112Z,99485.41
2017-11-06T02:04:10.898Z,99492.83
2017-11-06T02:10:14.645Z,99491.80
2017-11-06T02:16:19.205Z,99506.59
2017-11-06T02:22:22.995Z,99505.98
2017-11-06T02:28:26.785Z,99516.64
2017-11-06T02:34:30.577Z,99518.09
2017-11-06T02:40:34.048Z,99522.42
2017-11-06T02:46:37.507Z,99531.49
2017-11-06T02:52:40.951Z,99544.88
2017-11-06T02:58:44.724Z,99539.64
2017-11-06T03:04:48.183Z,99546.39
2017-11-06T03:10:51.990Z,99563.47
2017-11-06T03:16:55.441Z,99568.61
2017-11-06T03:22:58.888Z,99587.84
2017-11-06T03:29:02.332Z,99605.22
2017-11-06T03:35:06.163Z,99618.80
2017-11-06T03:41:10.397Z,99613.00
2017-11-06T03:47:14.935Z,99613.37
2017-11-06T03:53:18.727Z,99631.03
2017-11-06T03:59:22.517Z,99642.31
2017-11-06T04:05:26.243Z,99641.61
2017-11-06T04:11:29.902Z,99655.84
2017-11-06T04:17:33.702Z,99660.31
2017-11-06T04:23:37.491Z,99670.75
2017-11-06T04:29:41.279Z,99673.27
2017-11-06T04:35:44.985Z,99667.86
2017-11-06T04:41:48.474Z,99675.62
2017-11-06T04:47:51.953Z,99688.64
2017-11-06T04:53:55.410Z,99696.34
2017-11-06T04:59:58.860Z,99686.75
2017-11-06T05:06:02.324Z,99699.00
2017-11-06T05:12:06.073Z,99697.75
2017-11-06T05:18:09.534Z,99700.75
2017-11-06T05:24:12.989Z,99707.87
2017-11-06T05:30:17.263Z,99717.92
2017-11-06T05:36:20.755Z,99736.24
2017-11-06T05:42:24.210Z,99744.03
2017-11-06T05:48:27.648Z,99753.20
2017-11-06T05:54:31.877Z,99763.17
2017-11-06T06:00:35.627Z,99767.80
2017-11-06T06:06:40.211Z,99781.84
2017-11-06T06:12:43.754Z,99799.44
2017-11-06T06:18:47.544Z,99803.58
2017-11-06T06:24:51.766Z,99812.30
2017-11-06T06:30:55.241Z,99829.66
2017-11-06T06:36:58.692Z,99837.31
2017-11-06T06:43:02.148Z,99836.23
2017-11-06T06:49:05.866Z,99851.20
2017-11-06T06:55:09.322Z,99851.91
2017-11-06T07:01:12.767Z,99863.08
2017-11-06T07:07:16.591Z,99869.69
2017-11-06T07:13:20.149Z,99868.36
2017-11-06T07:19:23.606Z,99886.80
2017-11-06T07:25:27.967Z,99893.64
2017-11-06T07:31:31.754Z,99901.70
2017-11-06T07:37:35.541Z,99897.44
2017-11-06T07:43:39.008Z,99915.26
2017-11-06T07:49:42.614Z,99919.40
2017-11-06T07:55:46.072Z,99919.95
2017-11-06T08:01:49.888Z,99931.48
2017-11-06T08:07:53.353Z,99936.90
2017-11-06T08:13:57.169Z,99946.14
2017-11-06T08:20:00.612Z,99949.75
2017-11-06T08:26:04.830Z,99957.10
2017-11-06T08:32:08.275Z,99971.89
2017-11-06T08:38:12.519Z,99975.73
2017-11-06T08:44:16.426Z,99974.16
2017-11-06T08:50:19.890Z,99979.33
2017-11-06T08:56:23.344Z,99991.60
2017-11-06T09:02:27.911Z,99998.23
2017-11-06T09:08:31.369Z,100006.03
2017-11-06T09:14:35.193Z,100015.66
2017-11-06T09:20:38.979Z,100030.33
2017-11-06T09:26:42.434Z,100034.30
2017-11-06T09:32:46.053Z,100042.22
2017-11-06T09:38:49.506Z,100057.66
2017-11-06T09:44:52.947Z,100057.30
2017-11-06T09:50:56.709Z,100067.46
2017-11-06T09:57:00.160Z,100070.23
2017-11-06T10:03:03.614Z,100073.71
2017-11-06T10:09:07.830Z,100065.73
2017-11-06T10:15:12.052Z,100063.86
2017-11-06T10:21:15.502Z,100063.73
2017-11-06T10:27:19.265Z,100070.08
2017-11-06T10:33:23.040Z,100077.30
2017-11-06T10:39:26.511Z,100072.45
2017-11-06T10:45:30.316Z,100077.36
2017-11-06T10:51:33.780Z,100076.92
2017-11-06T10:57:37.249Z,100084.19
2017-11-06T11:03:40.702Z,100084.10
2017-11-06T11:09:44.145Z,100090.44
2017-11-06T11:15:47.594Z,100103.34
2017-11-06T11:21:51.077Z,100097.25
2017-11-06T11:27:55.303Z,100105.28
2017-11-06T11:33:59.113Z,100107.59
2017-11-06T11:40:02.912Z,100111.55
2017-11-06T11:46:06.698Z,100114.48
2017-11-06T11:52:10.159Z,100122.32
2017-11-06T11:58:13.667Z,100123.22
2017-11-06T12:04:17.445Z,100129.94
2017-11-06T12:10:20.911Z,100144.44
2017-11-06T12:16:24.724Z,100141.58
2017-11-06T12:22:28.193Z,100143.09
2017-11-06T12:28:31.670Z,100138.45
2017-11-06T12:34:35.120Z,100150.98
2017-11-06T12:40:38.847Z,100151.31
2017-11-06T12:46:42.338Z,100150.61
2017-11-06T12:52:45.788Z,100152.97
2017-11-06T12:58:49.997Z,100145.20
2017-11-06T13:04:54.227Z,100150.47
2017-11-06T13:10:57.687Z,100166.77
2017-11-06T13:17:01.148Z,100173.28
2017-11-06T13:23:05.476Z,100176.80
2017-11-06T13:29:08.970Z,100177.48
2017-11-06T13:35:12.441Z,100181.09
2017-11-06T13:41:15.926Z,100188.52
2017-11-06T13:47:19.396Z,100190.20
2017-11-06T13:53:23.973Z,100194.66
2017-11-06T13:59:27.425Z,100203.02
2017-11-06T14:05:30.881Z,100205.64
2017-11-06T14:11:35.101Z,100208.39
2017-11-06T14:17:38.560Z,100216.49
2017-11-06T14:23:41.993Z,100232.80
2017-11-06T14:29:45.456Z,100233.91
2017-11-06T14:35:50.039Z,100237.02
2017-11-06T14:41:53.502Z,100238.50
2017-11-06T14:47:56.979Z,100248.48
2017-11-06T14:54:00.449Z,100253.33
2017-11-06T15:00:04.132Z,100258.42
2017-11-06T15:06:07.588Z,100268.37
2017-11-06T15:12:11.339Z,100268.89
2017-11-06T15:18:14.794Z,100275.20
2017-11-06T15:24:18.257Z,100280.30
2017-11-06T15:30:21.735Z,100293.52
2017-11-06T15:36:25.205Z,100285.11
2017-11-06T15:42:29.536Z,100293.52
2017-11-06T15:50:58.737Z,100303.52
2017-11-06T15:57:02.526Z,100296.19
2017-11-06T16:03:05.982Z,100293.11
2017-11-06T16:19:52.787Z,100311.66
2017-11-06T16:25:56.273Z,100315.34
2017-11-06T16:32:00.057Z,100314.05
2017-11-06T16:38:03.550Z,100326.59
2017-11-06T16:50:51.955Z,100343.58
2017-11-06T16:56:56.173Z,100349.89
2017-11-06T17:02:59.724Z,100350.58
2017-11-06T17:09:06.540Z,100358.03
2017-11-06T17:15:11.313Z,100357.89
2017-11-06T17:21:17.090Z,100367.43
2017-11-06T17:27:20.747Z,100375.51
2017-11-06T17:33:24.415Z,100381.10
2017-11-06T17:39:29.195Z,100377.58
2017-11-06T17:45:33.696Z,100386.43
2017-11-06T17:51:37.320Z,100374.25
2017-11-06T17:57:41.083Z,100384.01
2017-11-06T18:03:44.709Z,100381.89
2017-11-06T18:09:48.329Z,100391.56
2017-11-06T18:15:52.088Z,100395.91
2017-11-06T18:21:55.973Z,100401.31
2017-11-06T18:27:59.559Z,100412.11
2017-11-06T18:34:04.395Z,100404.61
2017-11-06T18:40:08.789Z,100414.85
2017-11-06T18:46:12.523Z,100420.97
2017-11-06T18:52:17.217Z,100430.69
2017-11-06T18:58:20.897Z,100441.04
2017-11-06T19:04:24.525Z,100448.94
2017-11-06T19:10:32.257Z,100432.27
2017-11-06T19:16:38.140Z,100446.91
2017-11-06T19:22:42.599Z,100456.38
2017-11-06T19:28:46.690Z,100448.86
2017-11-06T19:34:51.005Z,100456.34
2017-11-06T19:40:54.688Z,100462.22
2017-11-06T19:47:00.559Z,100454.06
2017-11-06T19:53:06.178Z,100455.80
2017-11-06T19:59:09.887Z,100459.55
2017-11-06T20:05:15.437Z,100451.67
2017-11-06T20:11:20.079Z,100458.30
2017-11-06T20:17:25.532Z,100461.30
2017-11-06T20:23:29.504Z,100462.06
2017-11-06T20:29:33.072Z,100469.33
2017-11-06T20:35:37.539Z,100461.73
2017-11-06T20:41:42.193Z,100470.77
2017-11-06T20:47:45.813Z,100475.58
2017-11-06T20:53:50.328Z,100473.77
2017-11-06T20:59:54.441Z,100490.10
2017-11-06T21:06:00.675Z,100489.47
2017-11-06T21:12:04.552Z,100491.14
2017-11-06T21:18:08.907Z,100490.72
2017-11-06T21:24:12.533Z,100498.92
2017-11-06T21:36:52.243Z,100491.23
2017-11-06T21:42:55.751Z,100493.67
2017-11-06T21:49:00.073Z,100501.37
2017-11-06T21:55:03.565Z,100501.48
2017-11-06T22:01:07.042Z,100509.13
2017-11-06T22:07:10.546Z,100503.20
2017-11-06T22:13:14.043Z,100497.16
2017-11-06T22:19:17.555Z,100496.77
2017-11-06T22:25:21.818Z,100498.30
2017-11-06T22:31:25.312Z,100500.23
2017-11-06T22:37:28.810Z,100488.63
2017-11-06T22:43:32.312Z,100479.21
2017-11-06T22:49:35.788Z,100475.38
2017-11-06T22:55:39.406Z,100470.25
2017-11-06T23:01:43.669Z,100471.87
2017-11-06T23:07:47.170Z,100467.96
2017-11-06T23:13:50.665Z,100470.70
2017-11-06T23:19:55.562Z,100465.19
2017-11-06T23:25:59.066Z,100454.56
2017-11-06T23:32:03.366Z,100452.38
2017-11-06T23:38:07.637Z,100460.67
2017-11-06T23:44:11.136Z,100460.19
2017-11-06T23:50:14.638Z,100457.89
2017-11-06T23:56:18.920Z,100458.34
